Andalusia, Pennsylvania
Current Conditions -  °F | °C
As of 11:54 AM on Saturday 22 Nov 2014 (Local Time) from KPNE Reporting Station
Clear Clear  
Wind Chill: 35°   Ceiling: Unl
Heat Index: 42°   Visibility: 10mi
Dew Point: 14°   Wind: 15mph
Humidity: 32%   Direction: 240°WSW
Pressure: 30.43"   Gusts: 22mph
Location:  40.1068°N, 74.9379°W
Report Text: KPNE 221654Z AUTO 24013G19KT 10SM CLR 06/M10 A3043 RMK AO2 SLP304 T00561100 TSNO
Loading
Personal Weather Stations






























Interactive Weather Map New forecast layout! Learn more

10-Day Weather Forecast

Advertisements
Track Severe Weather on mobile